Terminal Aerodrome Forecast
Issued by NWS Bismarck, ND

Home | Current Version | Previous Version | Graphics & Text | Print | Product List | Glossary On
Versions: 1 2 3 4 5 6 7 8 9 10 11 12 13
000
FTUS43 KBIS 211131
TAFISN
TAF
KISN 211131Z 2112/2212 VRB03KT P6SM SCT100
     FM211700 32011KT P6SM SCT250
     FM212300 34016G24KT P6SM VCTS BKN080CB
     FM220200 33011KT P6SM VCSH BKN080
     FM220600 33009KT P6SM BKN060=

USA.gov is the U.S. government's official web portal to all federal, state and local government web resources and services.